Time;durP1;ratioP1;P1;durP2;ratioP2;P2;SDS_P1;SDS_P2;PMS_P1;PMS_P2;Temp;Humidity;BMP_temperature;BMP_pressure;BME280_temperature;BME280_humidity;BME280_pressure;Samples;Min_cycle;Max_cycle;Signal;HPM_P1;HPM_P2
2022/08/28 00:02:03;;;;;;;7.00;2.03;;;15.20;1.00;;;;;;5056670;28;20664;-63
2022/08/28 00:04:30;;;;;;;8.88;2.65;;;15.10;1.00;;;;;;5078505;28;20249;-63
2022/08/28 00:06:57;;;;;;;8.40;2.70;;;15.00;1.00;;;;;;5052047;28;20225;-63
2022/08/28 00:09:24;;;;;;;10.20;2.35;;;14.80;1.00;;;;;;5071099;28;20196;-63
2022/08/28 00:11:52;;;;;;;11.68;2.70;;;15.10;1.00;;;;;;5050464;28;20204;-64
2022/08/28 00:14:20;;;;;;;7.18;2.50;;;15.00;1.00;;;;;;5075911;28;20580;-63
2022/08/28 00:16:47;;;;;;;5.97;1.95;;;15.00;1.00;;;;;;5065132;28;20196;-64
2022/08/28 00:19:14;;;;;;;10.90;2.83;;;15.10;1.00;;;;;;5072634;28;20228;-63
2022/08/28 00:21:41;;;;;;;9.02;2.63;;;15.30;1.00;;;;;;5052024;28;20203;-64
2022/08/28 00:24:08;;;;;;;9.80;2.63;;;15.10;1.00;;;;;;5075254;28;20208;-63
2022/08/28 00:29:20;;;;;;;8.65;1.98;;;15.20;1.00;;;;;;5062995;28;20244;-65
2022/08/28 00:31:47;;;;;;;9.73;2.33;;;15.30;1.00;;;;;;5081117;28;20231;-63
2022/08/28 00:34:15;;;;;;;6.72;1.98;;;15.40;1.00;;;;;;5064395;28;20228;-63
2022/08/28 00:36:42;;;;;;;7.85;2.22;;;15.50;1.00;;;;;;5056718;28;20208;-63
2022/08/28 00:39:09;;;;;;;7.68;1.98;;;15.50;1.00;;;;;;5075613;28;20204;-63
2022/08/28 00:41:38;;;;;;;6.75;2.30;;;15.60;1.00;;;;;;5072137;28;20200;-63
2022/08/28 00:44:10;;;;;;;10.65;2.35;;;15.80;99.90;;;;;;5067547;28;20204;-64
2022/08/28 00:46:39;;;;;;;9.82;2.42;;;15.80;99.90;;;;;;5082540;28;20214;-63
2022/08/28 00:49:06;;;;;;;6.82;2.33;;;15.70;99.90;;;;;;5067296;28;20207;-63
2022/08/28 00:54:22;;;;;;;9.68;2.47;;;15.80;99.90;;;;;;5079336;28;20311;-63
2022/08/28 00:56:50;;;;;;;4.72;1.95;;;15.80;99.90;;;;;;5067566;28;20210;-63
2022/08/28 00:59:20;;;;;;;6.72;2.00;;;15.90;99.90;;;;;;5066324;28;20200;-63
2022/08/28 01:01:52;;;;;;;11.18;2.05;;;16.10;99.90;;;;;;5083830;28;20874;-63
2022/08/28 01:04:20;;;;;;;13.18;2.70;;;16.00;99.90;;;;;;5061526;28;20199;-62
2022/08/28 01:06:52;;;;;;;10.90;2.30;;;16.10;99.90;;;;;;5057930;28;20207;-63
2022/08/28 01:09:19;;;;;;;10.05;2.10;;;16.10;99.90;;;;;;5078581;28;20208;-63
2022/08/28 01:11:49;;;;;;;6.60;2.05;;;16.10;65.30;;;;;;5076789;28;20555;-63
2022/08/28 01:14:21;;;;;;;6.20;1.85;;;16.20;1.00;;;;;;5055362;28;20261;-62
2022/08/28 01:16:54;;;;;;;7.15;2.40;;;16.10;1.00;;;;;;5077677;28;20659;-63
2022/08/28 01:19:27;;;;;;;11.60;2.58;;;16.10;1.00;;;;;;5064631;28;20265;-63
2022/08/28 01:22:00;;;;;;;7.60;2.60;;;16.10;1.00;;;;;;5077326;28;20207;-63
2022/08/28 01:24:29;;;;;;;7.03;1.85;;;16.10;1.00;;;;;;5050455;28;20206;-63
2022/08/28 01:26:56;;;;;;;9.35;2.53;;;16.10;1.00;;;;;;5079358;28;20196;-63
2022/08/28 01:29:23;;;;;;;3.80;1.33;;;16.10;1.00;;;;;;5062837;28;20685;-63
2022/08/28 01:31:50;;;;;;;10.98;2.28;;;16.20;1.00;;;;;;5082704;28;20219;-63
2022/08/28 01:34:17;;;;;;;12.02;2.30;;;16.20;1.00;;;;;;5085009;28;20230;-63
2022/08/28 01:36:46;;;;;;;9.00;2.13;;;16.20;1.00;;;;;;5066411;28;21060;-63
2022/08/28 01:39:16;;;;;;;7.53;1.92;;;16.10;1.00;;;;;;5051493;28;20336;-63
2022/08/28 01:41:47;;;;;;;6.72;2.03;;;16.10;1.00;;;;;;5078237;28;20963;-64
2022/08/28 01:44:14;;;;;;;13.07;2.05;;;16.20;1.00;;;;;;5080916;28;20204;-62
2022/08/28 01:46:42;;;;;;;9.35;2.25;;;16.10;1.00;;;;;;5064654;28;20202;-62
2022/08/28 01:49:10;;;;;;;7.88;1.48;;;15.90;1.00;;;;;;5080027;28;20203;-63
2022/08/28 01:51:37;;;;;;;5.10;1.92;;;16.10;1.00;;;;;;5063298;28;20227;-63
2022/08/28 01:54:04;;;;;;;10.98;2.00;;;16.10;1.00;;;;;;5054269;28;20219;-63
2022/08/28 01:56:32;;;;;;;6.13;2.30;;;16.30;1.00;;;;;;5076116;28;20196;-63
2022/08/28 01:59:01;;;;;;;5.13;2.47;;;16.10;1.00;;;;;;5076412;28;20207;-63
2022/08/28 02:01:28;;;;;;;5.40;1.88;;;16.20;99.90;;;;;;5057495;28;20872;-62
2022/08/28 02:03:55;;;;;;;7.68;2.03;;;16.10;99.90;;;;;;5078320;28;20200;-63
2022/08/28 02:06:22;;;;;;;8.35;2.10;;;16.10;99.90;;;;;;5069761;28;20196;-63
2022/08/28 02:08:53;;;;;;;10.40;2.10;;;16.10;99.90;;;;;;5074227;28;20199;-63
2022/08/28 02:11:22;;;;;;;7.75;2.28;;;16.10;99.90;;;;;;5047417;28;20211;-62
2022/08/28 02:13:50;;;;;;;7.03;1.98;;;16.10;99.90;;;;;;5076685;28;20199;-63
2022/08/28 02:16:18;;;;;;;5.70;2.17;;;16.10;99.90;;;;;;5062430;28;20756;-63
2022/08/28 02:18:45;;;;;;;11.65;2.83;;;16.10;99.90;;;;;;5077499;28;20577;-63
2022/08/28 02:21:12;;;;;;;9.20;2.65;;;17.50;99.90;;;;;;5062004;28;20295;-63
2022/08/28 02:23:40;;;;;;;8.52;1.83;;;16.00;99.90;;;;;;5058679;28;20196;-63
2022/08/28 02:26:08;;;;;;;8.15;1.85;;;16.10;99.90;;;;;;5053147;28;20602;-63
2022/08/28 02:28:35;;;;;;;8.05;2.03;;;16.10;99.90;;;;;;5063998;28;20200;-63
2022/08/28 02:31:02;;;;;;;7.00;1.90;;;16.00;99.90;;;;;;5062949;28;20206;-63
2022/08/28 02:33:30;;;;;;;8.70;1.88;;;16.00;13.60;;;;;;5077687;28;20188;-63
2022/08/28 02:35:57;;;;;;;7.60;1.85;;;16.00;1.00;;;;;;5077931;28;20233;-63
2022/08/28 02:38:24;;;;;;;7.93;2.30;;;16.00;1.00;;;;;;5062941;28;20205;-63
2022/08/28 02:40:51;;;;;;;11.07;2.15;;;16.00;1.00;;;;;;5052225;28;20208;-63
2022/08/28 02:43:18;;;;;;;4.32;1.75;;;16.00;1.00;;;;;;5066838;28;20215;-63
2022/08/28 02:45:45;;;;;;;9.40;2.30;;;16.00;99.90;;;;;;5064907;28;20203;-62
2022/08/28 02:48:12;;;;;;;6.57;1.85;;;17.80;99.90;;;;;;5076752;28;20197;-63
2022/08/28 02:50:40;;;;;;;8.90;2.38;;;15.20;99.90;;;;;;5072395;28;20278;-63
2022/08/28 02:53:07;;;;;;;5.55;1.75;;;16.00;99.90;;;;;;5062739;28;20214;-63
2022/08/28 02:55:33;;;;;;;5.57;1.80;;;16.00;99.90;;;;;;5055505;28;20604;-63
2022/08/28 02:58:00;;;;;;;11.35;2.00;;;15.90;99.90;;;;;;5073585;28;20226;-63
2022/08/28 03:00:27;;;;;;;8.85;2.80;;;15.70;1.00;;;;;;5070883;28;21011;-62
2022/08/28 03:02:54;;;;;;;4.70;2.10;;;15.50;1.00;;;;;;5062767;28;20604;-63
2022/08/28 03:05:24;;;;;;;5.18;1.85;;;15.30;1.00;;;;;;5075320;28;20658;-62
2022/08/28 03:07:53;;;;;;;8.05;1.80;;;15.10;99.90;;;;;;5063659;28;20211;-61
2022/08/28 03:10:20;;;;;;;7.70;1.90;;;15.00;99.90;;;;;;5052701;28;20254;-60
2022/08/28 03:12:47;;;;;;;7.68;1.80;;;14.70;1.00;;;;;;5060293;28;20223;-61
2022/08/28 03:15:14;;;;;;;6.20;2.28;;;14.80;1.00;;;;;;5067527;28;20230;-60
2022/08/28 03:17:41;;;;;;;6.38;2.00;;;14.70;1.00;;;;;;5063980;28;20208;-61
2022/08/28 03:20:10;;;;;;;7.18;1.90;;;14.60;1.00;;;;;;5078003;28;20199;-61
2022/08/28 03:25:23;;;;;;;7.88;2.22;;;14.60;1.00;;;;;;5074574;28;20206;-61
2022/08/28 03:27:51;;;;;;;11.68;1.95;;;14.60;1.00;;;;;;5048095;28;20208;-61
2022/08/28 03:30:19;;;;;;;3.22;1.52;;;14.50;1.00;;;;;;5048616;28;20332;-61
2022/08/28 03:32:45;;;;;;;8.30;1.95;;;14.50;1.00;;;;;;5062994;28;20235;-61
2022/08/28 03:35:13;;;;;;;7.30;2.05;;;14.40;1.00;;;;;;5080305;28;20926;-61
2022/08/28 03:37:39;;;;;;;3.70;1.50;;;14.50;1.00;;;;;;5065591;28;20960;-61
2022/08/28 03:40:08;;;;;;;4.85;1.70;;;14.40;1.00;;;;;;5063861;28;20210;-61
2022/08/28 03:42:36;;;;;;;11.82;2.60;;;14.40;1.00;;;;;;5050435;28;20864;-61
2022/08/28 03:45:04;;;;;;;8.32;2.22;;;14.40;1.00;;;;;;5077394;28;20582;-60
2022/08/28 03:47:31;;;;;;;6.38;2.40;;;15.20;1.00;;;;;;5057498;28;20695;-61
2022/08/28 03:49:58;;;;;;;12.35;2.78;;;14.40;1.00;;;;;;5066758;28;20211;-61
2022/08/28 03:52:25;;;;;;;3.80;1.67;;;14.30;1.00;;;;;;5069212;28;20717;-61
2022/08/28 03:54:52;;;;;;;7.60;2.35;;;14.30;1.00;;;;;;5065595;28;21206;-60
2022/08/28 03:57:20;;;;;;;8.52;2.22;;;14.30;1.00;;;;;;5081734;28;20215;-61
2022/08/28 03:59:50;;;;;;;6.57;2.05;;;14.30;1.00;;;;;;5053634;28;20207;-61
2022/08/28 04:02:19;;;;;;;6.20;1.80;;;14.20;1.00;;;;;;5070793;28;20200;-61
2022/08/28 04:04:46;;;;;;;7.80;2.35;;;14.20;1.00;;;;;;5057774;28;20736;-61
2022/08/28 04:07:12;;;;;;;6.43;2.40;;;14.20;1.00;;;;;;5082792;28;20203;-61
2022/08/28 04:09:39;;;;;;;7.43;2.55;;;13.90;1.00;;;;;;5070346;28;20204;-61
2022/08/28 04:12:07;;;;;;;12.50;2.60;;;14.10;1.00;;;;;;5081187;28;20207;-61
2022/08/28 04:14:35;;;;;;;11.55;2.30;;;14.00;1.00;;;;;;5055127;28;20979;-63
2022/08/28 04:17:03;;;;;;;11.00;2.40;;;14.10;1.00;;;;;;5067347;28;20204;-63
2022/08/28 04:19:30;;;;;;;9.00;2.05;;;14.00;1.00;;;;;;5067056;28;20215;-61
2022/08/28 04:21:57;;;;;;;6.90;2.20;;;14.10;1.00;;;;;;5077065;28;20339;-62
2022/08/28 04:24:24;;;;;;;7.93;2.10;;;14.00;1.00;;;;;;5082080;28;20196;-61
2022/08/28 04:26:51;;;;;;;8.98;2.67;;;14.00;1.00;;;;;;5066421;28;20661;-62
2022/08/28 04:29:17;;;;;;;8.73;1.80;;;14.10;1.00;;;;;;5080238;28;20204;-62
2022/08/28 04:31:44;;;;;;;5.88;2.10;;;14.20;1.00;;;;;;5040819;28;20231;-61
2022/08/28 04:34:12;;;;;;;7.45;2.58;;;14.10;1.00;;;;;;5069465;28;20219;-61
2022/08/28 04:36:40;;;;;;;7.65;2.20;;;14.20;1.00;;;;;;5080507;28;20220;-62
2022/08/28 04:39:09;;;;;;;10.75;2.50;;;13.90;1.00;;;;;;5079719;28;20653;-62
2022/08/28 04:41:37;;;;;;;4.95;2.38;;;14.10;1.00;;;;;;5065060;28;20676;-61
2022/08/28 04:44:04;;;;;;;11.68;2.15;;;13.90;1.00;;;;;;5080297;28;20272;-62
2022/08/28 04:46:32;;;;;;;5.53;1.75;;;14.10;1.00;;;;;;5053073;28;20208;-61
2022/08/28 04:48:59;;;;;;;12.45;2.55;;;13.90;1.00;;;;;;5055543;28;20680;-62
2022/08/28 04:51:28;;;;;;;5.68;1.90;;;14.10;1.00;;;;;;5075720;28;20696;-61
2022/08/28 04:53:55;;;;;;;5.82;2.30;;;14.20;1.00;;;;;;5075555;28;20802;-62
2022/08/28 04:56:21;;;;;;;7.38;2.00;;;14.10;1.00;;;;;;5059524;28;23318;-62
2022/08/28 04:58:48;;;;;;;8.75;1.98;;;14.10;1.00;;;;;;5079572;28;20196;-61
2022/08/28 05:01:18;;;;;;;7.32;2.00;;;14.20;1.00;;;;;;5038253;27;20731;-61
2022/08/28 05:03:46;;;;;;;6.90;1.90;;;14.20;1.00;;;;;;5084481;28;20195;-61
2022/08/28 05:06:14;;;;;;;8.07;2.25;;;14.10;1.00;;;;;;5067359;28;20531;-62
2022/08/28 05:08:43;;;;;;;9.50;2.22;;;14.50;1.00;;;;;;5080212;28;20208;-62
2022/08/28 05:11:12;;;;;;;7.53;2.58;;;14.10;1.00;;;;;;5068417;28;20692;-62
2022/08/28 05:13:42;;;;;;;3.38;2.10;;;14.20;1.00;;;;;;5056034;28;20196;-62
2022/08/28 05:16:09;;;;;;;6.70;1.95;;;14.10;1.00;;;;;;5075381;28;21042;-61
2022/08/28 05:18:36;;;;;;;7.75;1.85;;;14.10;1.00;;;;;;5042538;28;20732;-61
2022/08/28 05:21:03;;;;;;;6.00;2.13;;;14.10;1.00;;;;;;5065114;28;20252;-61
2022/08/28 05:23:30;;;;;;;7.32;2.08;;;14.20;1.00;;;;;;5074084;28;20204;-62
2022/08/28 05:25:58;;;;;;;7.55;2.13;;;14.20;1.00;;;;;;5064715;28;20204;-62
2022/08/28 05:28:25;;;;;;;9.75;2.00;;;14.20;1.00;;;;;;5061811;28;20195;-62
2022/08/28 05:30:52;;;;;;;11.93;2.50;;;14.10;1.00;;;;;;5079955;28;20210;-61
2022/08/28 05:33:20;;;;;;;7.82;2.17;;;14.40;1.00;;;;;;5072758;27;20296;-61
2022/08/28 05:35:47;;;;;;;6.18;2.13;;;14.50;1.00;;;;;;5096318;27;23129;-61
2022/08/28 05:38:16;;;;;;;7.68;1.95;;;14.60;1.00;;;;;;5082306;27;20213;-62
2022/08/28 05:40:45;;;;;;;8.70;2.53;;;14.60;1.00;;;;;;5081217;27;20209;-62
2022/08/28 05:43:16;;;;;;;6.70;2.22;;;15.90;1.00;;;;;;5086265;27;20235;-62
2022/08/28 05:45:43;;;;;;;8.43;2.72;;;15.00;1.00;;;;;;5093837;27;20194;-61
2022/08/28 05:48:10;;;;;;;5.15;2.08;;;14.80;1.00;;;;;;5073400;27;20218;-61
2022/08/28 05:50:38;;;;;;;7.47;2.28;;;14.80;1.00;;;;;;5090056;27;20209;-61
2022/08/28 05:53:05;;;;;;;8.80;2.08;;;14.80;1.00;;;;;;5087848;27;20252;-62
2022/08/28 05:55:32;;;;;;;5.88;1.98;;;14.80;1.00;;;;;;5082979;27;20225;-62
2022/08/28 05:58:27;;;;;;;6.13;2.50;;;14.80;1.00;;;;;;5095679;27;20196;-62
2022/08/28 06:00:47;;;;;;;8.02;1.88;;;14.80;1.00;;;;;;5096488;27;20227;-61
2022/08/28 06:03:14;;;;;;;8.18;2.10;;;15.10;1.00;;;;;;5045702;27;20207;-62
2022/08/28 06:05:41;;;;;;;12.05;2.42;;;14.90;1.00;;;;;;5099329;27;20195;-61
2022/08/28 06:08:09;;;;;;;3.95;1.95;;;14.90;1.00;;;;;;5080627;27;20206;-62
2022/08/28 06:10:43;;;;;;;7.68;2.45;;;15.80;1.00;;;;;;5072373;27;20302;-61
2022/08/28 06:13:10;;;;;;;5.65;2.58;;;14.90;1.00;;;;;;5082156;27;20226;-61
2022/08/28 06:15:41;;;;;;;3.78;1.98;;;14.90;1.00;;;;;;5078833;27;20219;-61
2022/08/28 06:18:10;;;;;;;6.80;2.00;;;15.00;1.00;;;;;;5076128;27;20609;-62
2022/08/28 06:20:40;;;;;;;3.83;1.85;;;15.00;1.00;;;;;;5084150;27;20211;-62
2022/08/28 06:23:07;;;;;;;6.82;2.47;;;15.00;1.00;;;;;;5084324;27;20198;-62
2022/08/28 06:25:37;;;;;;;10.18;2.88;;;15.10;1.00;;;;;;5072472;27;20210;-62
2022/08/28 06:28:04;;;;;;;6.40;2.17;;;15.20;1.00;;;;;;5080699;27;20203;-62
2022/08/28 06:30:31;;;;;;;5.53;1.95;;;15.20;1.00;;;;;;5080839;27;20199;-61
2022/08/28 06:32:58;;;;;;;5.70;2.20;;;15.30;1.00;;;;;;5099016;27;20226;-61
2022/08/28 06:35:26;;;;;;;8.30;2.00;;;15.30;1.00;;;;;;5061866;27;20232;-61
2022/08/28 06:37:53;;;;;;;5.63;1.83;;;15.40;1.00;;;;;;5092781;27;20326;-61
2022/08/28 06:40:19;;;;;;;7.35;2.28;;;15.50;1.00;;;;;;5077746;27;20202;-61
2022/08/28 06:42:46;;;;;;;6.82;2.00;;;15.60;1.00;;;;;;5076092;27;20203;-61
2022/08/28 06:45:13;;;;;;;4.72;1.98;;;15.80;99.90;;;;;;5075740;27;20219;-61
2022/08/28 06:47:40;;;;;;;13.55;2.47;;;15.70;99.90;;;;;;5092115;27;20190;-61
2022/08/28 06:50:07;;;;;;;8.10;2.78;;;15.80;99.90;;;;;;5072380;27;20217;-62
2022/08/28 06:52:36;;;;;;;5.70;2.38;;;15.80;99.90;;;;;;5096194;27;20245;-61
2022/08/28 06:55:03;;;;;;;4.65;2.00;;;15.80;99.90;;;;;;5080733;27;20195;-62
2022/08/28 06:57:30;;;;;;;8.63;3.30;;;16.00;99.90;;;;;;5087064;27;20219;-61
2022/08/28 06:59:57;;;;;;;5.50;2.25;;;16.00;99.90;;;;;;5088048;27;21180;-62
2022/08/28 07:02:25;;;;;;;6.78;2.42;;;16.30;1.00;;;;;;5086337;27;20801;-62
2022/08/28 07:04:52;;;;;;;7.72;1.88;;;16.20;1.00;;;;;;5052826;27;20222;-61
2022/08/28 07:07:19;;;;;;;6.47;2.35;;;16.10;1.00;;;;;;5098273;27;20226;-62
2022/08/28 07:09:48;;;;;;;14.00;2.40;;;16.30;1.00;;;;;;5077656;27;20218;-62
2022/08/28 07:12:15;;;;;;;5.70;2.13;;;16.40;1.00;;;;;;5088826;27;20210;-62
2022/08/28 07:14:42;;;;;;;11.13;2.47;;;16.40;99.90;;;;;;5081575;27;20669;-62
2022/08/28 07:17:09;;;;;;;5.55;2.08;;;16.50;99.90;;;;;;5087849;27;20322;-61
2022/08/28 07:19:36;;;;;;;5.57;2.22;;;17.40;99.90;;;;;;5074815;27;20686;-62
2022/08/28 07:22:04;;;;;;;7.38;2.15;;;16.60;99.90;;;;;;5100821;27;20676;-61
2022/08/28 07:24:31;;;;;;;5.70;2.00;;;16.70;86.80;;;;;;5093629;27;20218;-62
2022/08/28 07:26:59;;;;;;;6.22;1.90;;;16.70;1.00;;;;;;5075398;27;20207;-62
2022/08/28 07:29:26;;;;;;;5.07;1.83;;;16.80;1.00;;;;;;5079382;27;20202;-61
2022/08/28 07:31:54;;;;;;;3.83;1.90;;;16.90;1.00;;;;;;5090588;27;20230;-62
2022/08/28 07:34:22;;;;;;;7.28;1.98;;;16.90;99.90;;;;;;5091419;27;20206;-62
2022/08/28 07:36:51;;;;;;;8.85;2.13;;;17.00;1.00;;;;;;5070080;27;20242;-62
2022/08/28 07:39:18;;;;;;;11.18;2.03;;;17.20;1.00;;;;;;5087624;28;20210;-61
2022/08/28 07:41:47;;;;;;;8.07;2.42;;;17.10;1.00;;;;;;5062171;27;20223;-62
2022/08/28 07:47:04;;;;;;;3.97;1.80;;;17.30;99.90;;;;;;5089987;28;20357;-61
2022/08/28 07:49:32;;;;;;;9.63;2.10;;;17.50;1.00;;;;;;5078651;27;20219;-62
2022/08/28 07:51:59;;;;;;;4.43;1.83;;;17.80;1.00;;;;;;5068877;27;20227;-62
2022/08/28 07:54:26;;;;;;;9.98;2.35;;;17.60;1.00;;;;;;5092392;27;20199;-62
2022/08/28 07:56:53;;;;;;;8.73;1.90;;;17.90;99.90;;;;;;5086421;27;20223;-62
2022/08/28 07:59:21;;;;;;;6.32;1.83;;;17.80;1.00;;;;;;5076322;27;20355;-62
2022/08/28 08:01:50;;;;;;;6.43;1.98;;;17.90;99.90;;;;;;5081789;27;20215;-61
2022/08/28 08:04:18;;;;;;;8.90;2.30;;;17.70;99.90;;;;;;5082832;27;20199;-62
2022/08/28 08:06:46;;;;;;;8.13;2.03;;;16.40;99.90;;;;;;5174368;22;20219;-61
2022/08/28 08:09:15;;;;;;;7.07;2.17;;;17.80;99.90;;;;;;5071907;27;21831;-62
2022/08/28 08:11:42;;;;;;;4.60;1.75;;;18.10;1.00;;;;;;5067616;27;20239;-61
2022/08/28 08:14:09;;;;;;;6.25;2.13;;;18.30;1.00;;;;;;5066567;27;20238;-62
2022/08/28 08:16:40;;;;;;;8.15;1.80;;;18.00;99.90;;;;;;5079140;27;20226;-62
2022/08/28 08:19:08;;;;;;;3.72;1.92;;;18.00;99.90;;;;;;5079416;27;20207;-62
2022/08/28 08:21:36;;;;;;;2.63;1.42;;;18.00;99.90;;;;;;5096959;27;20939;-62
2022/08/28 08:24:03;;;;;;;6.93;1.80;;;18.30;99.90;;;;;;5067036;27;20230;-62
2022/08/28 08:26:31;;;;;;;7.30;1.80;;;18.10;99.90;;;;;;5083445;27;20227;-62
2022/08/28 08:28:58;;;;;;;7.15;1.73;;;18.20;99.90;;;;;;5082659;27;20230;-62
2022/08/28 08:31:28;;;;;;;3.20;1.60;;;18.30;99.90;;;;;;5074916;27;20207;-62
2022/08/28 08:34:00;;;;;;;5.95;1.80;;;18.30;99.90;;;;;;5085594;27;20230;-62
2022/08/28 08:36:28;;;;;;;8.20;2.05;;;18.30;99.90;;;;;;5091307;27;20219;-62
2022/08/28 08:38:55;;;;;;;4.57;1.58;;;18.40;99.90;;;;;;5067706;27;22085;-62
2022/08/28 08:41:27;;;;;;;4.93;2.10;;;18.50;99.90;;;;;;5080975;27;20204;-62
2022/08/28 08:44:00;;;;;;;7.65;2.42;;;18.30;99.90;;;;;;5093188;27;20215;-62
2022/08/28 08:46:33;;;;;;;7.75;1.90;;;18.40;99.90;;;;;;5066831;27;20208;-61
2022/08/28 08:49:05;;;;;;;10.10;2.20;;;18.30;99.90;;;;;;5094168;27;20196;-62
2022/08/28 08:51:41;;;;;;;6.57;2.20;;;18.30;1.00;;;;;;5082599;27;20683;-61
2022/08/28 08:54:12;;;;;;;6.03;2.10;;;18.30;99.90;;;;;;5068006;27;20342;-62
2022/08/28 08:56:40;;;;;;;6.97;2.10;;;18.30;99.90;;;;;;5098544;27;20211;-62
2022/08/28 08:59:11;;;;;;;3.78;1.63;;;18.10;99.90;;;;;;5078920;27;20235;-62
2022/08/28 09:01:44;;;;;;;7.43;2.10;;;18.10;99.90;;;;;;5059355;27;20239;-62
2022/08/28 09:04:25;;;;;;;5.07;1.60;;;18.10;99.90;;;;;;5092382;27;20199;-62
2022/08/28 09:06:58;;;;;;;7.00;1.92;;;18.30;99.90;;;;;;5083725;27;20988;-62
2022/08/28 09:09:29;;;;;;;4.53;1.75;;;18.50;99.90;;;;;;5068665;27;20206;-62
2022/08/28 09:12:00;;;;;;;8.15;1.98;;;18.70;99.90;;;;;;5079955;27;20230;-62
2022/08/28 09:14:38;;;;;;;3.95;2.10;;;18.60;99.90;;;;;;5089713;27;20861;-61
2022/08/28 09:17:06;;;;;;;8.95;2.88;;;17.20;99.90;;;;;;5059493;27;20234;-62
2022/08/28 09:19:35;;;;;;;7.00;2.15;;;18.40;1.00;;;;;;5089648;27;20212;-62
2022/08/28 09:22:02;;;;;;;9.68;1.98;;;18.20;1.00;;;;;;5066805;27;20209;-62
2022/08/28 09:24:31;;;;;;;6.07;1.98;;;18.50;1.00;;;;;;5062844;27;20204;-62
2022/08/28 09:27:02;;;;;;;7.65;2.22;;;18.70;1.00;;;;;;5083552;27;20805;-63
2022/08/28 09:29:31;;;;;;;7.97;2.63;;;18.60;1.00;;;;;;5086401;27;20348;-63
2022/08/28 09:31:59;;;;;;;5.78;2.30;;;;;;;;;;5074338;27;20227;-63
2022/08/28 09:34:29;;;;;;;9.88;2.40;;;18.70;99.90;;;;;;5090769;27;20199;-63
2022/08/28 09:36:58;;;;;;;5.70;2.28;;;18.40;99.90;;;;;;5082580;27;20246;-62
2022/08/28 09:39:28;;;;;;;11.55;2.20;;;18.40;99.90;;;;;;5096203;27;20214;-62
2022/08/28 09:45:05;;;;;;;5.38;2.33;;;18.50;99.90;;;;;;5075075;27;20221;-63
2022/08/28 09:47:50;;;;;;;5.57;2.03;;;18.60;99.90;;;;;;5079844;27;20301;-63
2022/08/28 09:50:26;;;;;;;10.20;2.65;;;18.70;99.90;;;;;;5092275;27;20210;-63
2022/08/28 09:52:57;;;;;;;5.60;2.28;;;20.70;99.90;;;;;;5083681;27;20223;-62
2022/08/28 09:55:37;;;;;;;7.10;2.17;;;19.00;99.90;;;;;;5097930;27;20696;-63
2022/08/28 09:58:05;;;;;;;5.22;2.17;;;19.20;13.20;;;;;;5052191;27;20226;-63
2022/08/28 10:00:40;;;;;;;5.20;1.95;;;19.30;82.40;;;;;;5096895;27;20963;-63
2022/08/28 10:03:14;;;;;;;11.85;2.92;;;19.10;10.20;;;;;;5077848;27;20870;-63
2022/08/28 10:05:51;;;;;;;4.72;1.92;;;19.10;99.90;;;;;;5096596;27;20271;-63
2022/08/28 10:08:26;;;;;;;9.07;2.85;;;;;;;;;;5083499;27;20242;-63
2022/08/28 10:11:12;;;;;;;5.68;2.33;;;18.90;99.90;;;;;;5080945;27;20214;-64
2022/08/28 10:13:47;;;;;;;7.22;1.90;;;18.80;92.70;;;;;;5073481;27;20608;-63
2022/08/28 10:16:24;;;;;;;4.93;2.05;;;18.70;99.90;;;;;;5096300;27;22655;-63
2022/08/28 10:19:01;;;;;;;3.75;1.90;;;18.80;99.90;;;;;;5079675;27;20229;-63
2022/08/28 10:21:42;;;;;;;4.88;2.42;;;18.90;99.90;;;;;;5087799;27;20218;-63
2022/08/28 10:24:23;;;;;;;3.45;2.15;;;19.00;91.80;;;;;;5085565;27;20222;-63
2022/08/28 10:26:59;;;;;;;4.65;2.03;;;19.10;37.80;;;;;;5075292;27;20241;-63
2022/08/28 10:29:36;;;;;;;6.25;1.95;;;19.30;1.00;;;;;;5070636;27;20222;-63
2022/08/28 10:32:18;;;;;;;6.88;3.17;;;19.30;1.00;;;;;;5078270;27;20604;-63
2022/08/28 10:34:58;;;;;;;6.70;1.98;;;19.40;18.30;;;;;;5077839;27;20305;-63
2022/08/28 10:37:35;;;;;;;10.98;2.97;;;19.30;60.20;;;;;;5100569;27;20226;-62
2022/08/28 10:40:10;;;;;;;7.45;2.70;;;19.20;27.30;;;;;;5080345;27;20224;-63
2022/08/28 10:42:43;;;;;;;8.07;2.17;;;18.90;99.90;;;;;;5075895;27;20227;-63
2022/08/28 10:45:14;;;;;;;10.85;3.03;;;19.10;99.90;;;;;;5079506;27;20294;-63
2022/08/28 10:47:45;;;;;;;4.88;2.25;;;19.20;99.90;;;;;;5088826;27;20195;-63
2022/08/28 10:50:17;;;;;;;4.50;2.17;;;19.10;99.90;;;;;;5083161;27;20219;-63
2022/08/28 10:52:48;;;;;;;6.78;2.08;;;18.90;93.40;;;;;;5098249;27;20579;-63
2022/08/28 10:55:22;;;;;;;5.63;2.20;;;19.00;49.60;;;;;;5087088;27;20219;-62
2022/08/28 10:57:52;;;;;;;5.20;1.98;;;19.10;32.80;;;;;;5068863;27;20826;-63
2022/08/28 11:00:21;;;;;;;5.50;2.08;;;19.20;16.50;;;;;;5080762;27;20563;-63
2022/08/28 11:02:52;;;;;;;5.13;2.25;;;19.90;20.60;;;;;;5083582;27;20211;-63
2022/08/28 11:05:22;;;;;;;7.32;2.40;;;19.40;63.70;;;;;;5080866;27;20571;-62
2022/08/28 11:07:53;;;;;;;7.90;2.90;;;19.50;99.90;;;;;;5087201;27;20243;-63
2022/08/28 11:10:48;;;;;;;6.43;2.38;;;19.30;4.20;;;;;;5084193;27;20226;-62
2022/08/28 11:13:40;;;;;;;5.55;2.60;;;19.10;1.00;;;;;;5070157;27;20327;-62
2022/08/28 11:16:12;;;;;;;6.35;2.75;;;19.10;1.00;;;;;;5074258;27;20233;-62
2022/08/28 11:19:14;;;;;;;12.57;2.78;;;19.10;1.00;;;;;;5085869;27;20264;-63
2022/08/28 11:21:47;;;;;;;5.50;2.92;;;17.60;13.10;;;;;;5068929;27;20673;-62
2022/08/28 11:24:27;;;;;;;6.75;2.80;;;19.30;30.00;;;;;;5092548;27;20200;-63
2022/08/28 11:27:05;;;;;;;10.65;2.55;;;19.30;33.40;;;;;;5079690;27;20753;-63
2022/08/28 11:29:58;;;;;;;4.95;2.50;;;19.30;1.00;;;;;;5071525;27;20284;-62
2022/08/28 11:32:58;;;;;;;14.10;2.70;;;19.40;8.90;;;;;;5076847;27;20267;-62
2022/08/28 11:35:45;;;;;;;9.38;2.65;;;19.40;1.00;;;;;;5090592;27;20206;-63
2022/08/28 11:38:33;;;;;;;6.50;2.80;;;19.40;1.00;;;;;;5094977;27;20359;-63
2022/08/28 11:41:13;;;;;;;7.88;2.97;;;19.30;99.90;;;;;;5083202;27;20219;-63
2022/08/28 11:43:42;;;;;;;8.85;2.95;;;19.30;1.00;;;;;;5095238;27;20201;-63
2022/08/28 11:46:24;;;;;;;9.23;3.10;;;19.30;14.40;;;;;;5061487;27;20201;-63
2022/08/28 11:48:54;;;;;;;7.22;3.72;;;19.30;1.00;;;;;;5069000;27;21091;-63
2022/08/28 11:51:41;;;;;;;6.53;2.80;;;19.60;10.00;;;;;;5091350;27;20203;-63
2022/08/28 11:54:20;;;;;;;6.30;2.88;;;19.40;1.00;;;;;;5077542;27;20698;-63
2022/08/28 11:57:01;;;;;;;6.40;3.13;;;19.20;1.00;;;;;;5074066;27;20195;-63
2022/08/28 12:00:04;;;;;;;6.43;3.20;;;19.20;1.00;;;;;;5089738;27;20198;-63
2022/08/28 12:02:58;;;;;;;10.32;3.20;;;19.10;1.00;;;;;;5077863;27;20205;-64
2022/08/28 12:05:46;;;;;;;8.07;3.10;;;19.50;1.00;;;;;;5083341;27;20293;-62
2022/08/28 12:08:52;;;;;;;8.63;3.08;;;19.50;1.00;;;;;;5082369;27;20276;-63
2022/08/28 12:11:52;;;;;;;9.45;3.50;;;19.60;1.00;;;;;;5093103;27;20199;-63
2022/08/28 12:15:02;;;;;;;10.60;3.83;;;19.60;1.00;;;;;;5074663;27;20715;-63
2022/08/28 12:17:51;;;;;;;8.40;3.50;;;19.50;1.00;;;;;;5080405;27;20314;-63
2022/08/28 12:20:47;;;;;;;5.28;3.40;;;19.50;1.00;;;;;;5068756;27;20245;-63
2022/08/28 12:23:38;;;;;;;13.30;3.97;;;19.40;21.00;;;;;;5072986;27;20938;-63
2022/08/28 12:26:09;;;;;;;7.90;3.08;;;19.40;1.00;;;;;;5093406;27;20213;-63
2022/08/28 12:28:48;;;;;;;10.15;3.67;;;19.40;1.00;;;;;;5087212;27;20207;-63
2022/08/28 12:32:13;;;;;;;8.95;3.58;;;19.40;1.00;;;;;;5067676;27;20202;-63
2022/08/28 12:35:06;;;;;;;7.65;4.00;;;19.40;1.00;;;;;;5087521;27;20209;-62
2022/08/28 12:37:36;;;;;;;7.07;3.70;;;19.50;1.00;;;;;;5098336;27;20904;-62
2022/08/28 12:40:12;;;;;;;9.98;3.92;;;19.50;1.00;;;;;;5078793;27;20210;-63
2022/08/28 12:42:47;;;;;;;10.23;3.45;;;20.60;1.00;;;;;;5094736;27;20308;-63
2022/08/28 12:45:21;;;;;;;9.43;4.15;;;19.30;1.00;;;;;;5085900;27;20202;-63
2022/08/28 12:47:52;;;;;;;6.85;3.53;;;19.40;1.00;;;;;;5078974;27;20198;-62
2022/08/28 12:50:27;;;;;;;6.95;2.88;;;19.30;11.30;;;;;;5086082;27;21852;-63
2022/08/28 12:52:56;;;;;;;8.32;3.65;;;19.30;18.10;;;;;;5075783;27;20229;-63
2022/08/28 12:55:23;;;;;;;5.70;2.97;;;20.50;99.90;;;;;;5084555;27;20219;-63
2022/08/28 12:57:52;;;;;;;11.43;3.50;;;19.40;32.10;;;;;;5101862;27;20234;-62
2022/08/28 13:00:21;;;;;;;8.43;3.05;;;19.50;27.70;;;;;;5088750;27;20202;-62
2022/08/28 13:02:50;;;;;;;8.38;2.70;;;20.10;20.70;;;;;;5064645;27;20231;-63
2022/08/28 13:05:39;;;;;;;5.53;2.80;;;19.60;23.40;;;;;;5064186;27;20269;-63
2022/08/28 13:08:10;;;;;;;7.57;3.30;;;19.60;16.10;;;;;;5086590;27;20821;-63
2022/08/28 13:10:40;;;;;;;4.97;2.80;;;19.70;39.50;;;;;;5084222;27;20211;-63
2022/08/28 13:13:17;;;;;;;16.88;3.47;;;19.80;30.70;;;;;;5103166;27;20199;-63
2022/08/28 13:15:50;;;;;;;9.77;3.90;;;19.90;44.00;;;;;;5091833;27;20214;-63
2022/08/28 13:18:37;;;;;;;8.57;3.40;;;20.20;6.40;;;;;;5077604;27;20222;-63
2022/08/28 13:21:41;;;;;;;7.25;3.03;;;19.60;65.40;;;;;;5089873;27;20198;-63
2022/08/28 13:24:28;;;;;;;10.80;3.03;;;19.70;1.00;;;;;;5082826;27;20589;-63
2022/08/28 13:27:05;;;;;;;8.43;2.88;;;19.40;29.60;;;;;;5094962;27;20203;-66
2022/08/28 13:29:32;;;;;;;8.80;2.97;;;;;;;;;;5079715;27;20223;-62